Time;durP1;ratioP1;P1;durP2;ratioP2;P2;SDS_P1;SDS_P2;PMS_P1;PMS_P2;Temp;Humidity;BMP_temperature;BMP_pressure;BME280_temperature;BME280_humidity;BME280_pressure;Samples;Min_cycle;Max_cycle;Signal;HPM_P1;HPM_P2
2023/10/18 00:00:34;;;;;;;3.13;2.55;;;15.50;65.10;;;;;;5039148;28;20025;-47
2023/10/18 00:03:01;;;;;;;2.38;2.00;;;15.50;65.10;;;;;;5038581;28;20036;-49
2023/10/18 00:05:28;;;;;;;3.30;2.72;;;15.50;65.10;;;;;;5031459;28;20025;-48
2023/10/18 00:07:57;;;;;;;3.90;2.80;;;15.50;65.10;;;;;;5037754;28;20044;-48
2023/10/18 00:10:23;;;;;;;2.30;2.10;;;15.50;65.10;;;;;;5039124;28;20026;-46
2023/10/18 00:12:52;;;;;;;2.88;2.08;;;15.50;65.10;;;;;;5037078;28;20099;-48
2023/10/18 00:15:18;;;;;;;3.08;2.20;;;15.50;65.10;;;;;;5036913;28;20044;-46
2023/10/18 00:17:44;;;;;;;2.78;2.30;;;15.50;65.10;;;;;;5035595;28;20083;-47
2023/10/18 00:20:13;;;;;;;2.92;2.17;;;15.50;65.10;;;;;;5036471;28;20025;-46
2023/10/18 00:22:43;;;;;;;3.60;2.28;;;15.50;65.10;;;;;;5037293;28;20376;-47
2023/10/18 00:25:12;;;;;;;7.38;3.13;;;15.50;65.10;;;;;;5037082;28;20533;-47
2023/10/18 00:27:46;;;;;;;2.78;2.28;;;15.50;65.20;;;;;;5036978;28;20033;-48
2023/10/18 00:30:12;;;;;;;2.25;2.05;;;15.50;65.10;;;;;;5038740;28;20045;-47
2023/10/18 00:32:39;;;;;;;2.67;2.47;;;15.50;65.20;;;;;;5037620;28;20518;-47
2023/10/18 00:35:31;;;;;;;3.08;2.60;;;15.50;65.20;;;;;;5038193;28;20090;-47
2023/10/18 00:37:57;;;;;;;2.50;2.20;;;15.50;65.20;;;;;;5036084;28;20770;-47
2023/10/18 00:43:08;;;;;;;2.65;2.08;;;15.50;65.10;;;;;;5016636;28;20040;-51
2023/10/18 00:45:40;;;;;;;2.55;2.00;;;15.50;65.10;;;;;;5016797;28;20125;-47
2023/10/18 00:48:06;;;;;;;2.67;2.10;;;15.50;65.10;;;;;;5020588;28;20087;-49
2023/10/18 00:50:37;;;;;;;3.80;2.35;;;15.50;65.10;;;;;;5021994;28;20221;-48
2023/10/18 00:53:02;;;;;;;3.40;2.40;;;15.50;65.10;;;;;;5021696;28;20117;-47
2023/10/18 00:55:30;;;;;;;2.80;2.08;;;15.50;65.10;;;;;;5020579;28;20727;-51
2023/10/18 00:57:57;;;;;;;3.47;2.13;;;15.50;65.10;;;;;;5020943;28;20069;-46
2023/10/18 01:00:24;;;;;;;3.15;2.30;;;15.50;65.10;;;;;;5033926;28;20536;-47
2023/10/18 01:02:52;;;;;;;3.35;2.20;;;15.50;65.10;;;;;;5020130;28;21086;-46
2023/10/18 01:05:18;;;;;;;3.33;2.05;;;15.50;65.10;;;;;;5021872;28;20090;-50
2023/10/18 01:07:46;;;;;;;2.80;2.08;;;15.50;65.10;;;;;;5019180;28;20499;-46
2023/10/18 01:10:12;;;;;;;2.88;2.45;;;15.50;65.10;;;;;;5034688;28;20155;-46
2023/10/18 01:12:38;;;;;;;4.80;2.67;;;15.50;65.80;;;;;;5040713;28;20028;-49
2023/10/18 01:15:08;;;;;;;2.30;1.80;;;15.50;65.10;;;;;;5039100;28;20405;-48
2023/10/18 01:17:35;;;;;;;2.20;2.00;;;15.50;65.10;;;;;;5039740;28;20036;-45
2023/10/18 01:20:12;;;;;;;1.88;1.70;;;15.50;65.10;;;;;;5039697;28;20033;-48
2023/10/18 01:22:38;;;;;;;2.70;2.10;;;15.40;65.10;;;;;;5031520;28;20398;-47
2023/10/18 01:25:04;;;;;;;3.95;2.10;;;15.50;65.20;;;;;;5038893;28;20033;-50
2023/10/18 01:27:30;;;;;;;2.65;2.08;;;15.50;65.10;;;;;;5041515;28;20033;-50
2023/10/18 01:29:55;;;;;;;2.03;1.75;;;15.40;65.00;;;;;;5039273;28;20032;-51
2023/10/18 01:32:21;;;;;;;2.30;1.90;;;15.40;65.00;;;;;;5039804;28;20021;-48
2023/10/18 01:34:47;;;;;;;3.38;2.50;;;15.40;65.00;;;;;;5038950;28;20635;-49
2023/10/18 01:37:13;;;;;;;2.97;2.13;;;15.40;65.10;;;;;;5040349;28;20534;-46
2023/10/18 01:39:39;;;;;;;2.75;2.05;;;15.40;65.00;;;;;;5040002;28;20443;-49
2023/10/18 01:42:06;;;;;;;2.50;2.20;;;15.40;65.10;;;;;;5038286;28;20044;-47
2023/10/18 01:44:55;;;;;;;4.15;2.00;;;15.40;65.00;;;;;;5040239;28;20036;-50
2023/10/18 01:47:21;;;;;;;2.42;2.22;;;15.40;65.10;;;;;;5038851;28;20033;-48
2023/10/18 01:49:50;;;;;;;2.13;1.70;;;15.50;65.20;;;;;;5039445;28;20386;-46
2023/10/18 01:52:19;;;;;;;2.10;1.90;;;15.50;65.10;;;;;;5040336;28;20035;-47
2023/10/18 01:54:46;;;;;;;2.60;1.80;;;15.40;65.00;;;;;;5038478;28;20052;-46
2023/10/18 01:57:12;;;;;;;2.88;1.67;;;15.40;65.00;;;;;;5041947;28;20456;-48
2023/10/18 01:59:39;;;;;;;2.58;1.88;;;15.40;65.10;;;;;;5039260;28;20025;-50
2023/10/18 02:02:10;;;;;;;2.03;1.83;;;15.40;65.10;;;;;;5037281;28;20060;-46
2023/10/18 02:04:37;;;;;;;2.20;2.00;;;15.40;65.10;;;;;;5037713;28;20032;-47
2023/10/18 02:07:06;;;;;;;1.55;1.42;;;15.40;65.10;;;;;;5038095;28;20490;-47
2023/10/18 02:09:36;;;;;;;2.42;1.90;;;15.40;65.00;;;;;;5036004;28;20037;-49
2023/10/18 02:12:08;;;;;;;2.70;2.00;;;15.40;65.00;;;;;;5040022;28;20107;-47
2023/10/18 02:14:33;;;;;;;2.72;2.08;;;15.40;65.00;;;;;;5039265;28;20028;-47
2023/10/18 02:17:00;;;;;;;3.38;1.88;;;15.40;65.00;;;;;;5040729;28;20060;-47
2023/10/18 02:19:27;;;;;;;2.00;1.80;;;15.40;65.00;;;;;;5042312;28;20115;-47
2023/10/18 02:21:54;;;;;;;3.08;2.35;;;15.40;65.00;;;;;;5044090;28;20029;-47
2023/10/18 02:24:20;;;;;;;2.35;1.90;;;15.40;65.00;;;;;;5040345;28;20560;-48
2023/10/18 02:27:03;;;;;;;2.72;1.90;;;15.40;64.90;;;;;;5036092;28;20028;-48
2023/10/18 02:29:32;;;;;;;2.65;2.00;;;15.40;65.00;;;;;;5037090;28;20156;-49
2023/10/18 02:31:57;;;;;;;2.85;2.10;;;15.40;64.90;;;;;;5039124;28;20116;-46
2023/10/18 02:34:26;;;;;;;2.70;2.03;;;15.40;65.60;;;;;;5038072;28;20454;-48
2023/10/18 02:36:52;;;;;;;2.78;1.95;;;15.40;65.00;;;;;;5038668;28;20037;-47
2023/10/18 02:39:23;;;;;;;2.15;1.90;;;15.40;65.00;;;;;;5039111;28;20546;-48
2023/10/18 02:41:51;;;;;;;2.28;2.05;;;15.40;64.90;;;;;;5039902;28;20039;-46
2023/10/18 02:44:23;;;;;;;2.65;1.80;;;15.40;65.00;;;;;;5039775;28;20030;-46
2023/10/18 02:46:54;;;;;;;2.30;1.90;;;15.40;65.00;;;;;;5040542;28;20033;-50
2023/10/18 02:49:22;;;;;;;2.95;1.80;;;15.40;65.00;;;;;;5041387;28;20040;-49
2023/10/18 02:51:49;;;;;;;2.50;2.08;;;15.40;65.00;;;;;;5037765;28;20037;-48
2023/10/18 02:56:40;;;;;;;1.90;1.80;;;15.40;65.00;;;;;;5038067;28;20082;-48
2023/10/18 02:59:13;;;;;;;2.10;1.90;;;15.40;65.00;;;;;;5036215;28;20060;-46
2023/10/18 03:01:40;;;;;;;2.20;1.73;;;15.40;65.00;;;;;;5033756;28;20723;-46
2023/10/18 03:04:16;;;;;;;2.30;1.88;;;15.40;64.90;;;;;;5035976;28;20045;-47
2023/10/18 03:06:43;;;;;;;2.53;2.30;;;15.40;65.00;;;;;;5036566;28;20128;-49
2023/10/18 03:10:02;;;;;;;1.90;1.73;;;15.40;65.00;;;;;;5033435;28;20040;-48
2023/10/18 03:11:55;;;;;;;2.53;2.17;;;15.40;65.00;;;;;;5026362;28;20368;-48
2023/10/18 03:14:55;;;;;;;2.47;2.00;;;15.40;65.00;;;;;;5039929;28;20528;-47
2023/10/18 03:17:24;;;;;;;2.20;1.88;;;15.40;64.90;;;;;;5036458;28;20040;-46
2023/10/18 03:19:56;;;;;;;2.10;1.90;;;15.30;65.00;;;;;;5037518;28;20454;-47
2023/10/18 03:22:25;;;;;;;3.20;2.30;;;15.40;65.00;;;;;;5040096;28;20033;-47
2023/10/18 03:24:53;;;;;;;2.70;2.10;;;15.40;65.00;;;;;;5038699;28;20116;-47
2023/10/18 03:27:20;;;;;;;2.17;1.98;;;15.30;64.80;;;;;;5037982;28;20238;-47
2023/10/18 03:29:45;;;;;;;2.30;2.10;;;15.30;65.00;;;;;;5037005;28;20033;-47
2023/10/18 03:32:19;;;;;;;2.20;1.98;;;15.30;64.90;;;;;;5038041;28;20464;-48
2023/10/18 03:34:45;;;;;;;2.17;1.98;;;15.30;65.00;;;;;;5038395;28;20043;-46
2023/10/18 03:37:21;;;;;;;3.28;2.63;;;15.30;64.90;;;;;;5041368;28;20032;-46
2023/10/18 03:39:53;;;;;;;3.03;2.50;;;15.30;65.10;;;;;;5041848;28;20032;-46
2023/10/18 03:42:31;;;;;;;3.38;2.30;;;15.30;65.00;;;;;;5041247;28;20521;-47
2023/10/18 03:45:01;;;;;;;2.42;2.22;;;15.30;65.00;;;;;;5040529;28;20822;-47
2023/10/18 03:47:29;;;;;;;2.33;2.13;;;15.30;65.00;;;;;;5039827;28;20044;-47
2023/10/18 03:49:55;;;;;;;2.50;2.30;;;15.30;65.00;;;;;;5039039;28;20064;-46
2023/10/18 03:52:21;;;;;;;2.80;2.33;;;15.30;65.00;;;;;;5040574;28;20041;-48
2023/10/18 03:57:27;;;;;;;2.95;2.25;;;15.30;65.00;;;;;;5039531;28;20037;-47
2023/10/18 03:59:58;;;;;;;2.30;1.92;;;15.30;64.90;;;;;;5038087;28;20300;-46
2023/10/18 04:02:27;;;;;;;2.20;2.00;;;15.30;65.00;;;;;;5039028;28;22031;-47
2023/10/18 04:05:00;;;;;;;1.92;1.73;;;15.30;65.00;;;;;;5037118;28;20037;-46
2023/10/18 04:07:26;;;;;;;2.05;1.85;;;15.30;64.90;;;;;;5034181;28;20029;-47
2023/10/18 04:09:53;;;;;;;2.55;2.00;;;15.30;64.90;;;;;;5035552;28;20268;-45
2023/10/18 04:12:22;;;;;;;2.80;2.28;;;15.30;64.90;;;;;;5038991;28;20561;-48
2023/10/18 04:15:19;;;;;;;2.33;2.13;;;15.30;64.90;;;;;;5036449;28;20045;-46
2023/10/18 04:17:44;;;;;;;2.38;1.80;;;15.30;64.90;;;;;;5019426;28;20029;-46
2023/10/18 04:20:23;;;;;;;2.17;1.90;;;15.30;65.60;;;;;;5020097;28;20040;-45
2023/10/18 04:22:50;;;;;;;2.38;2.10;;;15.30;65.00;;;;;;5016151;28;20025;-46
2023/10/18 04:25:32;;;;;;;2.50;1.98;;;15.30;65.00;;;;;;5018940;28;20108;-47
2023/10/18 04:27:58;;;;;;;2.45;2.00;;;15.30;65.00;;;;;;5013072;28;20037;-47
2023/10/18 04:30:29;;;;;;;2.83;2.10;;;15.30;65.10;;;;;;5018367;28;20033;-47
2023/10/18 04:33:12;;;;;;;2.20;1.95;;;15.30;65.00;;;;;;5018026;28;20040;-45
2023/10/18 04:35:51;;;;;;;2.28;1.90;;;15.30;65.00;;;;;;5017318;28;20034;-46
2023/10/18 04:38:37;;;;;;;2.83;1.63;;;15.30;65.00;;;;;;5017256;28;20037;-47
2023/10/18 04:41:10;;;;;;;4.15;1.92;;;15.30;65.00;;;;;;5032681;28;20448;-48
2023/10/18 04:43:36;;;;;;;3.03;1.95;;;15.20;65.00;;;;;;5037225;28;20101;-46
2023/10/18 04:46:15;;;;;;;6.57;1.90;;;15.30;65.00;;;;;;5038226;28;20029;-47
2023/10/18 04:54:09;;;;;;;2.22;1.88;;;15.20;64.90;;;;;;5012807;28;20456;-45
2023/10/18 04:56:37;;;;;;;3.05;2.15;;;15.20;65.00;;;;;;5014243;28;20030;-52
2023/10/18 04:59:29;;;;;;;2.20;1.90;;;15.20;65.00;;;;;;5039127;28;20801;-48
2023/10/18 05:04:24;;;;;;;3.22;1.80;;;15.30;65.00;;;;;;5039692;28;20124;-46
2023/10/18 05:06:54;;;;;;;2.53;2.00;;;15.30;65.00;;;;;;5035082;28;20025;-45
2023/10/18 05:09:43;;;;;;;3.10;2.05;;;15.20;65.00;;;;;;5039130;28;20540;-47
2023/10/18 05:12:32;;;;;;;2.33;2.13;;;15.20;65.00;;;;;;5032950;28;20037;-47
2023/10/18 05:17:49;;;;;;;5.30;2.50;;;15.20;65.00;;;;;;5036682;28;20036;-48
2023/10/18 05:22:45;;;;;;;2.65;2.30;;;15.20;65.10;;;;;;5034159;28;20056;-45
2023/10/18 05:27:59;;;;;;;5.38;2.90;;;15.30;65.00;;;;;;5044378;28;20128;-46
2023/10/18 05:33:30;;;;;;;2.85;2.17;;;15.30;64.70;;;;;;5007039;28;20037;-48
2023/10/18 05:36:04;;;;;;;3.40;2.15;;;15.40;64.70;;;;;;5033034;28;20143;-47
2023/10/18 05:38:48;;;;;;;3.40;2.23;;;15.30;63.30;;;;;;5034878;28;20525;-46
2023/10/18 05:43:59;;;;;;;5.40;4.30;;;15.00;63.20;;;;;;5038725;28;20036;-50
2023/10/18 05:46:28;;;;;;;6.03;5.30;;;14.90;63.50;;;;;;5041715;28;20045;-47
2023/10/18 05:48:57;;;;;;;9.10;5.55;;;14.90;63.30;;;;;;5039367;28;20039;-47
2023/10/18 05:53:49;;;;;;;8.02;5.63;;;14.70;63.40;;;;;;5039913;28;20159;-46
2023/10/18 05:56:15;;;;;;;6.95;5.85;;;14.70;63.40;;;;;;5038079;28;20037;-50
2023/10/18 05:58:40;;;;;;;9.07;6.00;;;14.70;63.40;;;;;;5040498;28;20136;-48
2023/10/18 06:01:06;;;;;;;9.13;5.95;;;14.70;63.40;;;;;;5036560;28;20052;-49
2023/10/18 06:03:41;;;;;;;7.32;5.43;;;14.70;63.50;;;;;;5036076;28;20479;-46
2023/10/18 06:06:07;;;;;;;8.68;5.60;;;14.70;63.00;;;;;;5033610;28;20658;-46
2023/10/18 06:08:33;;;;;;;7.72;6.00;;;14.60;63.30;;;;;;5030865;28;20040;-48
2023/10/18 06:11:08;;;;;;;9.27;5.88;;;14.70;63.40;;;;;;5047522;28;20055;-51
2023/10/18 06:13:37;;;;;;;8.07;5.53;;;14.60;63.30;;;;;;5037610;28;20584;-46
2023/10/18 06:16:18;;;;;;;7.13;5.72;;;14.60;63.10;;;;;;5028040;28;20065;-51
2023/10/18 06:18:46;;;;;;;8.13;6.00;;;14.60;63.30;;;;;;5039131;28;20059;-49
2023/10/18 06:21:18;;;;;;;7.30;5.78;;;14.60;63.30;;;;;;5039090;28;20448;-50
2023/10/18 06:23:55;;;;;;;7.63;6.07;;;14.50;63.10;;;;;;5025644;28;20115;-51
2023/10/18 06:26:30;;;;;;;9.65;6.53;;;14.50;63.10;;;;;;5037406;28;20124;-49
2023/10/18 06:29:00;;;;;;;10.38;6.35;;;14.60;63.60;;;;;;5038869;28;20033;-46
2023/10/18 06:31:30;;;;;;;9.88;5.80;;;14.50;63.00;;;;;;5033850;28;20034;-47
2023/10/18 06:33:59;;;;;;;10.38;6.53;;;14.50;63.50;;;;;;5036299;28;21668;-49
2023/10/18 06:36:25;;;;;;;7.95;5.93;;;14.60;63.60;;;;;;5040744;28;20034;-46
2023/10/18 06:38:51;;;;;;;9.30;6.10;;;14.50;63.40;;;;;;5037314;28;20550;-46
2023/10/18 06:41:21;;;;;;;8.00;5.43;;;14.50;63.50;;;;;;5038920;28;20550;-48
2023/10/18 06:43:49;;;;;;;7.65;5.53;;;14.60;63.60;;;;;;5039007;28;20040;-47
2023/10/18 06:46:22;;;;;;;7.95;6.30;;;14.50;63.30;;;;;;5039666;28;20049;-48
2023/10/18 06:48:48;;;;;;;11.73;6.28;;;14.60;63.00;;;;;;5034698;28;20032;-52
2023/10/18 06:51:17;;;;;;;9.50;6.85;;;14.50;63.30;;;;;;5036651;28;20037;-52
2023/10/18 06:53:50;;;;;;;9.35;6.70;;;14.50;63.50;;;;;;5038326;28;20490;-51
2023/10/18 06:56:22;;;;;;;10.38;6.88;;;14.50;63.40;;;;;;5040464;28;20035;-48
2023/10/18 06:58:48;;;;;;;8.10;6.18;;;14.60;63.80;;;;;;5037725;28;20052;-50
2023/10/18 07:01:19;;;;;;;9.80;6.22;;;14.60;63.90;;;;;;5036138;28;20398;-51
2023/10/18 07:03:45;;;;;;;7.60;5.07;;;14.50;63.50;;;;;;5037659;28;20569;-47
2023/10/18 07:06:23;;;;;;;10.13;6.57;;;14.50;63.60;;;;;;5038767;28;20029;-46
2023/10/18 07:08:52;;;;;;;9.45;6.35;;;14.50;63.70;;;;;;5036773;28;20100;-48
2023/10/18 07:11:18;;;;;;;7.93;5.93;;;14.60;63.90;;;;;;5039046;28;20048;-47
2023/10/18 07:13:50;;;;;;;8.13;5.80;;;14.60;63.90;;;;;;5039348;28;20474;-47
2023/10/18 07:21:43;;;;;;;8.15;5.32;;;14.60;63.70;;;;;;5036131;28;20540;-47
2023/10/18 07:24:11;;;;;;;9.57;6.18;;;14.60;63.70;;;;;;5036815;28;20041;-47
2023/10/18 07:26:40;;;;;;;7.90;5.20;;;14.60;63.80;;;;;;5038583;28;20067;-47
2023/10/18 07:29:09;;;;;;;9.02;4.95;;;14.60;63.60;;;;;;5038160;28;20429;-45
2023/10/18 07:31:38;;;;;;;14.93;7.13;;;14.60;64.00;;;;;;5035783;28;20540;-49
2023/10/18 07:34:07;;;;;;;7.13;4.60;;;14.60;63.60;;;;;;5033950;28;20032;-47
2023/10/18 07:36:37;;;;;;;8.95;5.05;;;14.60;63.50;;;;;;5036667;28;20032;-48
2023/10/18 07:39:04;;;;;;;7.90;5.30;;;14.60;63.80;;;;;;5034857;28;20225;-46
2023/10/18 07:41:34;;;;;;;6.40;4.45;;;14.60;63.40;;;;;;5037634;28;20024;-45
2023/10/18 07:44:00;;;;;;;7.00;5.03;;;14.60;62.70;;;;;;5036671;28;20486;-46
2023/10/18 07:46:27;;;;;;;7.32;4.32;;;14.60;62.90;;;;;;5038754;28;20128;-47
2023/10/18 07:48:54;;;;;;;6.40;4.93;;;14.60;62.90;;;;;;5036517;28;20025;-48
2023/10/18 07:51:26;;;;;;;7.00;4.80;;;14.50;62.70;;;;;;5037225;28;20036;-46
2023/10/18 07:53:53;;;;;;;7.78;4.45;;;14.50;62.70;;;;;;5031925;28;20036;-46
2023/10/18 07:56:48;;;;;;;8.05;4.78;;;14.50;62.50;;;;;;5038230;28;20753;-46
2023/10/18 08:02:12;;;;;;;6.72;4.47;;;14.60;62.80;;;;;;5034460;28;20549;-50
2023/10/18 08:04:40;;;;;;;5.95;4.40;;;14.60;62.60;;;;;;5019895;28;20035;-45
2023/10/18 08:07:16;;;;;;;7.18;4.72;;;14.60;62.80;;;;;;5034998;28;20037;-46
2023/10/18 08:09:43;;;;;;;7.53;4.90;;;14.60;63.30;;;;;;5037025;28;20048;-46
2023/10/18 08:14:54;;;;;;;8.43;4.13;;;14.50;62.70;;;;;;5031001;28;20030;-48
2023/10/18 08:22:51;;;;;;;6.30;4.35;;;14.50;62.30;;;;;;5036230;28;20090;-47
2023/10/18 08:25:24;;;;;;;8.25;5.00;;;14.50;62.50;;;;;;5036217;28;20032;-46
2023/10/18 08:27:53;;;;;;;7.43;4.43;;;14.50;61.90;;;;;;5034024;28;20526;-46
2023/10/18 08:30:38;;;;;;;7.65;4.00;;;14.50;62.60;;;;;;5029912;28;20193;-46
2023/10/18 08:33:05;;;;;;;6.00;3.92;;;14.50;62.30;;;;;;5033657;28;20532;-46
2023/10/18 08:35:31;;;;;;;5.28;3.83;;;14.60;63.50;;;;;;5037578;28;20387;-46
2023/10/18 08:38:01;;;;;;;5.38;3.42;;;14.70;63.70;;;;;;5036844;28;20537;-47
2023/10/18 08:40:28;;;;;;;6.22;3.00;;;14.80;63.50;;;;;;5037976;28;20059;-49
2023/10/18 08:43:06;;;;;;;5.63;3.28;;;14.80;63.50;;;;;;5036577;28;20053;-46
2023/10/18 08:45:46;;;;;;;4.82;3.08;;;14.90;63.30;;;;;;5037094;28;20087;-47
2023/10/18 08:48:28;;;;;;;4.93;3.33;;;14.90;63.90;;;;;;5035294;28;20147;-45
2023/10/18 08:50:55;;;;;;;6.45;3.40;;;15.00;64.10;;;;;;5034638;28;20497;-46
2023/10/18 08:53:25;;;;;;;6.93;3.22;;;15.00;64.20;;;;;;5030596;28;20064;-51
2023/10/18 08:55:52;;;;;;;4.65;3.28;;;15.00;64.00;;;;;;5034648;28;20067;-49
2023/10/18 09:03:27;;;;;;;4.53;3.00;;;15.00;64.10;;;;;;5033304;28;19923;-46
2023/10/18 09:06:04;;;;;;;6.65;2.70;;;15.00;63.90;;;;;;5036249;28;20025;-48
2023/10/18 09:08:42;;;;;;;5.05;3.42;;;15.00;63.40;;;;;;5034370;28;20021;-48
2023/10/18 09:11:21;;;;;;;6.90;3.20;;;15.00;63.60;;;;;;5035398;28;20022;-52
2023/10/18 09:14:08;;;;;;;4.03;3.33;;;15.00;64.00;;;;;;5033336;28;20033;-45
2023/10/18 09:16:42;;;;;;;5.80;2.90;;;15.00;63.40;;;;;;5031984;28;20026;-49
2023/10/18 09:19:10;;;;;;;5.68;3.05;;;15.00;63.70;;;;;;5032974;28;20025;-47
2023/10/18 09:21:36;;;;;;;3.47;2.85;;;15.00;63.30;;;;;;5036615;28;20086;-48
2023/10/18 09:24:09;;;;;;;4.78;3.40;;;15.00;63.70;;;;;;5039113;28;20026;-49
2023/10/18 09:26:41;;;;;;;5.80;3.42;;;15.10;62.80;;;;;;5030017;28;20543;-45
2023/10/18 09:29:10;;;;;;;6.00;3.00;;;15.00;63.20;;;;;;5038237;28;20075;-47
2023/10/18 09:31:50;;;;;;;5.47;3.38;;;15.00;63.60;;;;;;5026373;28;20037;-45
2023/10/18 09:34:16;;;;;;;5.47;3.20;;;15.00;63.80;;;;;;5037119;28;20029;-45
2023/10/18 09:36:56;;;;;;;4.60;2.67;;;15.00;63.00;;;;;;5036346;28;20086;-45
2023/10/18 09:39:21;;;;;;;5.40;2.90;;;15.00;62.20;;;;;;5035469;28;20029;-45
2023/10/18 09:41:47;;;;;;;4.72;3.45;;;15.00;63.50;;;;;;5032693;28;20667;-46
2023/10/18 09:44:13;;;;;;;4.53;2.90;;;15.00;63.10;;;;;;5034519;28;20111;-46
2023/10/18 09:46:38;;;;;;;4.07;2.80;;;15.10;63.60;;;;;;5033252;28;20049;-48
2023/10/18 09:49:09;;;;;;;5.25;2.58;;;15.10;63.30;;;;;;5028354;28;20026;-47
2023/10/18 09:51:44;;;;;;;4.25;2.72;;;15.10;63.50;;;;;;5031585;28;20064;-45
2023/10/18 09:54:13;;;;;;;5.40;3.00;;;15.20;63.60;;;;;;5036942;28;20441;-45
2023/10/18 09:56:40;;;;;;;4.32;2.50;;;15.20;63.70;;;;;;5036665;28;20036;-50
2023/10/18 09:59:11;;;;;;;3.42;2.75;;;15.20;63.20;;;;;;5033618;28;20048;-47
2023/10/18 10:04:14;;;;;;;3.42;2.60;;;15.10;63.40;;;;;;5036793;28;20059;-46
2023/10/18 10:09:29;;;;;;;5.60;3.55;;;15.10;63.30;;;;;;4993591;28;20055;-47
2023/10/18 10:11:55;;;;;;;3.97;2.92;;;15.10;61.70;;;;;;5035070;28;20120;-46
2023/10/18 10:14:24;;;;;;;4.05;2.83;;;15.10;62.00;;;;;;5035498;28;20132;-46
2023/10/18 10:16:58;;;;;;;4.90;3.05;;;15.10;62.50;;;;;;5036241;28;20537;-49
2023/10/18 10:19:29;;;;;;;4.18;2.90;;;15.10;61.40;;;;;;5027334;28;20082;-46
2023/10/18 10:21:59;;;;;;;4.45;2.63;;;15.10;63.20;;;;;;5031195;28;20041;-47
2023/10/18 10:24:36;;;;;;;3.83;2.63;;;15.10;63.30;;;;;;5033650;28;20228;-46
2023/10/18 10:32:58;;;;;;;3.95;2.30;;;15.20;63.40;;;;;;5035365;28;20041;-45
2023/10/18 10:35:25;;;;;;;4.55;3.17;;;15.20;62.50;;;;;;5036656;28;20037;-46
2023/10/18 10:37:54;;;;;;;4.82;2.70;;;15.00;61.40;;;;;;5035032;28;20044;-47
2023/10/18 10:43:04;;;;;;;5.10;2.67;;;15.10;63.10;;;;;;5031262;28;20029;-46
2023/10/18 10:45:35;;;;;;;5.97;3.42;;;15.20;63.30;;;;;;5035253;28;20782;-45
2023/10/18 10:48:28;;;;;;;5.15;2.85;;;15.20;62.90;;;;;;5030703;28;20522;-48
2023/10/18 10:51:09;;;;;;;6.88;2.72;;;15.20;62.90;;;;;;5028836;28;20242;-47
2023/10/18 10:53:54;;;;;;;3.78;3.00;;;15.20;62.90;;;;;;5035597;28;20059;-45
2023/10/18 10:56:36;;;;;;;7.30;3.10;;;15.20;62.30;;;;;;5033458;28;20522;-45
2023/10/18 11:01:39;;;;;;;4.38;3.00;;;15.20;63.30;;;;;;5034794;28;20036;-46
2023/10/18 11:04:46;;;;;;;4.22;3.20;;;15.20;63.10;;;;;;5033444;28;20071;-47
2023/10/18 11:07:13;;;;;;;7.03;2.97;;;15.20;63.00;;;;;;5021933;28;20464;-46
2023/10/18 11:09:42;;;;;;;5.50;2.72;;;15.20;63.30;;;;;;5033872;28;20049;-45
2023/10/18 11:12:17;;;;;;;5.10;2.55;;;15.20;62.00;;;;;;5023805;28;20057;-47
2023/10/18 11:14:43;;;;;;;7.22;3.22;;;15.20;62.70;;;;;;5032224;28;20025;-46
2023/10/18 11:19:41;;;;;;;4.50;2.38;;;15.20;62.20;;;;;;5031652;28;20033;-45
2023/10/18 11:22:14;;;;;;;4.72;2.70;;;15.20;62.70;;;;;;5030185;28;20497;-48
2023/10/18 11:24:39;;;;;;;4.47;2.80;;;15.20;62.90;;;;;;5035289;28;20032;-48
2023/10/18 11:27:09;;;;;;;6.88;3.33;;;15.20;61.00;;;;;;5035340;28;20037;-48
2023/10/18 11:29:38;;;;;;;4.60;2.97;;;15.10;60.30;;;;;;5033196;28;20025;-48
2023/10/18 11:32:07;;;;;;;4.45;3.33;;;15.00;61.70;;;;;;5033306;28;20036;-45
2023/10/18 11:34:38;;;;;;;5.65;2.70;;;15.10;59.90;;;;;;5033337;28;20025;-48
2023/10/18 11:37:08;;;;;;;3.80;2.55;;;15.10;61.90;;;;;;5032339;28;20578;-46
2023/10/18 11:39:33;;;;;;;4.22;2.72;;;15.10;61.60;;;;;;5028824;28;20025;-46
2023/10/18 11:41:59;;;;;;;4.10;2.75;;;15.10;62.20;;;;;;5032080;28;20441;-46
2023/10/18 11:44:33;;;;;;;4.88;2.78;;;15.20;62.50;;;;;;5028326;28;20452;-47
2023/10/18 11:47:41;;;;;;;3.85;2.88;;;15.20;62.40;;;;;;5029822;28;20444;-47
2023/10/18 11:50:01;;;;;;;4.25;2.78;;;15.20;60.10;;;;;;5030625;28;20539;-48
2023/10/18 11:52:27;;;;;;;4.10;2.85;;;15.20;61.30;;;;;;5034255;28;20029;-49
2023/10/18 11:55:08;;;;;;;4.55;2.63;;;15.20;61.20;;;;;;5032804;28;20029;-46
2023/10/18 11:57:38;;;;;;;4.60;3.28;;;15.20;62.10;;;;;;5030091;28;20045;-47
2023/10/18 12:02:48;;;;;;;5.57;3.10;;;15.10;61.30;;;;;;5031513;28;20037;-45
2023/10/18 12:05:15;;;;;;;4.07;2.70;;;15.10;60.70;;;;;;5048051;28;20044;-46
2023/10/18 12:07:44;;;;;;;3.95;2.75;;;15.10;62.00;;;;;;5031110;28;20053;-47
2023/10/18 12:10:57;;;;;;;5.30;2.70;;;15.10;62.10;;;;;;5032565;28;20055;-50
2023/10/18 12:13:07;;;;;;;3.55;2.67;;;15.20;62.40;;;;;;5021685;28;20584;-50
2023/10/18 12:15:35;;;;;;;4.68;2.58;;;15.20;62.40;;;;;;5030103;28;20033;-47
2023/10/18 12:18:08;;;;;;;4.60;3.25;;;15.20;62.40;;;;;;5036519;28;20326;-51
2023/10/18 12:20:37;;;;;;;6.00;3.38;;;15.20;59.80;;;;;;5026319;28;20127;-45
2023/10/18 12:23:18;;;;;;;5.82;3.65;;;15.10;60.30;;;;;;5027306;28;20094;-50
2023/10/18 12:25:45;;;;;;;4.63;3.00;;;15.10;59.70;;;;;;5030375;28;20536;-45
2023/10/18 12:28:27;;;;;;;4.78;3.75;;;15.10;60.60;;;;;;5035411;28;20037;-48
2023/10/18 12:30:54;;;;;;;5.93;3.40;;;15.10;59.80;;;;;;5031772;28;20029;-51
2023/10/18 12:33:27;;;;;;;4.82;2.80;;;15.10;61.20;;;;;;5034533;28;20532;-47
2023/10/18 12:35:56;;;;;;;3.50;2.70;;;15.20;62.00;;;;;;5030734;28;20079;-51
2023/10/18 12:38:31;;;;;;;4.43;2.28;;;15.20;62.30;;;;;;5032544;28;20186;-48
2023/10/18 12:43:45;;;;;;;4.30;3.08;;;15.20;62.40;;;;;;5028523;28;20037;-45
2023/10/18 12:46:21;;;;;;;7.63;4.18;;;15.20;60.40;;;;;;5031169;28;20041;-49
2023/10/18 12:48:49;;;;;;;5.05;3.05;;;15.20;58.70;;;;;;5030285;28;20029;-48
2023/10/18 12:51:17;;;;;;;4.90;2.78;;;15.10;60.40;;;;;;5033666;28;20187;-49
2023/10/18 12:56:20;;;;;;;4.43;3.08;;;15.10;61.40;;;;;;5038719;28;20025;-45
2023/10/18 12:59:11;;;;;;;8.77;3.35;;;15.20;61.30;;;;;;5026788;28;20731;-48
2023/10/18 13:04:22;;;;;;;3.75;2.97;;;15.20;62.50;;;;;;5037192;28;20052;-46
2023/10/18 13:06:48;;;;;;;4.95;2.80;;;15.20;59.90;;;;;;5035164;28;20124;-49
2023/10/18 13:14:23;;;;;;;3.72;3.00;;;15.20;61.90;;;;;;5031395;28;20553;-46
2023/10/18 13:16:51;;;;;;;5.10;3.00;;;15.20;62.20;;;;;;5027242;28;20167;-48
2023/10/18 13:19:19;;;;;;;4.40;2.83;;;15.20;60.20;;;;;;5032669;28;20064;-45
2023/10/18 13:21:47;;;;;;;4.35;3.15;;;15.20;61.30;;;;;;5030278;28;20120;-47
2023/10/18 13:26:49;;;;;;;6.10;3.03;;;15.20;61.80;;;;;;5038066;28;20795;-46
2023/10/18 13:31:49;;;;;;;5.05;3.22;;;15.20;62.00;;;;;;5035815;28;20094;-46
2023/10/18 13:34:21;;;;;;;6.85;4.00;;;15.20;60.10;;;;;;5035153;28;20493;-49
2023/10/18 13:36:48;;;;;;;5.35;3.45;;;15.20;60.50;;;;;;5033436;28;20052;-52
2023/10/18 13:39:17;;;;;;;4.53;3.47;;;15.10;60.20;;;;;;5034826;28;20029;-45
2023/10/18 13:41:47;;;;;;;6.18;2.97;;;15.10;60.80;;;;;;5034424;28;20048;-48
2023/10/18 13:44:22;;;;;;;5.90;3.83;;;15.10;60.10;;;;;;5028237;28;20025;-52
2023/10/18 13:46:51;;;;;;;9.23;3.30;;;15.10;60.40;;;;;;5033151;28;20116;-47
2023/10/18 13:49:17;;;;;;;4.88;3.53;;;15.10;60.70;;;;;;5029779;28;20112;-50
2023/10/18 13:51:45;;;;;;;4.90;3.30;;;15.10;61.00;;;;;;5033149;28;20098;-50
2023/10/18 13:54:12;;;;;;;7.40;4.20;;;15.20;61.70;;;;;;5030386;28;20033;-49
2023/10/18 13:56:38;;;;;;;4.60;3.35;;;15.20;59.90;;;;;;5037771;28;20057;-47
2023/10/18 13:59:04;;;;;;;5.50;3.67;;;15.20;60.70;;;;;;5036767;28;20474;-46
2023/10/18 14:01:31;;;;;;;5.25;3.78;;;15.20;61.20;;;;;;5036672;28;20041;-48
2023/10/18 14:04:01;;;;;;;5.25;3.47;;;15.20;61.40;;;;;;5033454;28;20052;-45
2023/10/18 14:06:28;;;;;;;6.55;3.30;;;15.20;60.60;;;;;;5035035;28;20061;-47
2023/10/18 14:08:54;;;;;;;6.57;3.55;;;15.20;61.40;;;;;;5029003;28;20112;-45
2023/10/18 14:11:20;;;;;;;5.03;3.33;;;15.20;60.30;;;;;;5033892;28;20125;-48
2023/10/18 14:13:47;;;;;;;6.18;3.75;;;15.20;60.20;;;;;;5034079;28;20043;-49
2023/10/18 14:16:16;;;;;;;4.50;3.70;;;15.10;60.40;;;;;;5031926;28;20079;-46
2023/10/18 14:18:46;;;;;;;7.15;3.65;;;15.10;61.20;;;;;;5028448;28;20026;-51
2023/10/18 14:21:12;;;;;;;6.63;3.90;;;15.20;61.30;;;;;;5033177;28;20048;-49
2023/10/18 14:23:47;;;;;;;6.50;3.67;;;15.20;61.00;;;;;;5031290;28;20513;-51
2023/10/18 14:26:24;;;;;;;5.05;3.70;;;15.20;60.10;;;;;;5034169;28;20396;-46
2023/10/18 14:28:55;;;;;;;4.68;3.85;;;15.20;61.10;;;;;;5033102;28;20048;-46
2023/10/18 14:31:21;;;;;;;7.47;4.32;;;15.20;60.80;;;;;;5031995;28;20107;-47
2023/10/18 14:33:49;;;;;;;5.55;3.90;;;15.20;58.90;;;;;;5032820;28;20395;-49
2023/10/18 14:36:15;;;;;;;6.05;3.83;;;15.20;60.50;;;;;;5034320;28;20484;-48